Big Bend National Park, Texas
Current Conditions -  °F | °C
As of 9:55 AM on Friday 31 Oct 2014 (Local Time) from KPRS Reporting Station
Overcast Overcast  
Wind Chill: 65°   Ceiling: 2800
Heat Index: 65°   Visibility: 10mi
Dew Point: 53°   Wind: 0mph
Humidity: 63%   Direction: NA
Pressure: 30.32"   Gusts: NA
Location:  29.2813°N, 103.166°W
Report Text: KPRS 311455Z AUTO 00000KT 10SM OVC028 19/12 A3032 RMK AO2 T01860115
Loading
Personal Weather Stations






























Interactive Weather Map
Tropical Storm Tracking
New forecast layout! Learn more

10-Day Weather Forecast

Advertisements
Track Severe Weather on mobile